createdAt,value
2018-10-21T00:01:00.228Z,10.40
2018-10-21T00:03:28.299Z,10.40
2018-10-21T00:05:56.344Z,10.40
2018-10-21T00:08:24.443Z,10.30
2018-10-21T00:10:52.526Z,10.30
2018-10-21T00:13:20.580Z,10.20
2018-10-21T00:15:48.636Z,10.20
2018-10-21T00:18:16.697Z,10.20
2018-10-21T00:20:44.749Z,10.10
2018-10-21T00:23:12.866Z,10.10
2018-10-21T00:25:40.927Z,10.00
2018-10-21T00:28:09.050Z,9.90
2018-10-21T00:30:37.311Z,9.80
2018-10-21T00:33:05.436Z,9.80
2018-10-21T00:35:33.421Z,9.80
2018-10-21T00:38:01.530Z,9.80
2018-10-21T00:40:29.554Z,9.70
2018-10-21T00:42:57.606Z,9.70
2018-10-21T00:45:25.706Z,9.60
2018-10-21T00:47:53.749Z,9.50
2018-10-21T00:50:21.833Z,9.50
2018-10-21T00:52:50.255Z,9.40
2018-10-21T00:55:18.305Z,9.40
2018-10-21T00:57:46.381Z,9.30
2018-10-21T01:00:14.475Z,9.40
2018-10-21T01:02:42.617Z,9.40
2018-10-21T01:05:11.239Z,9.30
2018-10-21T01:07:39.599Z,9.30
2018-10-21T01:10:08.822Z,9.30
2018-10-21T01:12:36.857Z,9.20
2018-10-21T01:15:05.399Z,9.20
2018-10-21T01:17:33.412Z,9.20
2018-10-21T01:20:01.490Z,9.20
2018-10-21T01:22:29.555Z,9.20
2018-10-21T01:24:57.633Z,9.20
2018-10-21T01:27:25.694Z,9.20
2018-10-21T01:29:53.765Z,9.20
2018-10-21T01:32:21.827Z,9.20
2018-10-21T01:34:50.005Z,9.20
2018-10-21T01:37:18.127Z,9.20
2018-10-21T01:40:55.727Z,9.20
2018-10-21T01:43:25.100Z,9.20
2018-10-21T01:45:53.178Z,9.10
2018-10-21T01:48:22.433Z,9.10
2018-10-21T01:50:50.502Z,9.00
2018-10-21T01:53:19.241Z,8.90
2018-10-21T01:55:47.356Z,8.90
2018-10-21T01:58:15.383Z,8.80
2018-10-21T02:00:43.861Z,8.80
2018-10-21T02:03:11.942Z,8.80
2018-10-21T02:05:40.683Z,8.80
2018-10-21T02:08:08.799Z,8.70
2018-10-21T02:10:36.891Z,8.70
2018-10-21T02:13:04.982Z,8.60
2018-10-21T02:15:33.003Z,8.70
2018-10-21T02:18:01.082Z,8.70
2018-10-21T02:20:29.415Z,8.70
2018-10-21T02:22:57.609Z,8.80
2018-10-21T02:25:25.663Z,8.70
2018-10-21T02:27:54.040Z,8.70
2018-10-21T02:30:23.287Z,8.70
2018-10-21T02:32:52.008Z,8.70
2018-10-21T02:35:20.558Z,8.80
2018-10-21T02:37:49.002Z,8.80
2018-10-21T02:41:28.377Z,8.80
2018-10-21T02:43:56.442Z,8.70
2018-10-21T02:46:24.769Z,8.70
2018-10-21T02:48:53.845Z,8.60
2018-10-21T02:51:22.047Z,8.60
2018-10-21T02:53:50.086Z,8.50
2018-10-21T02:56:18.189Z,8.50
2018-10-21T02:58:46.330Z,8.40
2018-10-21T03:01:14.396Z,8.40
2018-10-21T03:03:42.453Z,8.30
2018-10-21T03:06:10.575Z,8.30
2018-10-21T03:08:39.123Z,8.30
2018-10-21T03:11:07.336Z,8.30
2018-10-21T03:13:35.496Z,8.20
2018-10-21T03:16:04.013Z,8.20
2018-10-21T03:18:32.162Z,8.20
2018-10-21T03:21:00.891Z,8.20
2018-10-21T03:23:28.905Z,8.20
2018-10-21T03:25:57.166Z,8.20
2018-10-21T03:28:25.266Z,8.20
2018-10-21T03:30:53.362Z,8.20
2018-10-21T03:33:21.529Z,8.30
2018-10-21T03:35:49.453Z,8.30
2018-10-21T03:38:17.529Z,8.30
2018-10-21T03:40:45.620Z,8.30
2018-10-21T03:43:13.657Z,8.30
2018-10-21T03:45:41.765Z,8.30
2018-10-21T03:48:09.792Z,8.30
2018-10-21T03:50:37.941Z,8.30
2018-10-21T03:53:05.973Z,8.30
2018-10-21T03:55:35.019Z,8.30
2018-10-21T03:58:03.171Z,8.30
2018-10-21T04:00:31.300Z,8.30
2018-10-21T04:02:59.325Z,8.30
2018-10-21T04:05:27.409Z,8.30
2018-10-21T04:07:55.481Z,8.30
2018-10-21T04:10:23.529Z,8.20
2018-10-21T04:12:51.723Z,8.20
2018-10-21T04:15:19.754Z,8.30
2018-10-21T04:17:47.894Z,8.30
2018-10-21T04:20:15.965Z,8.30
2018-10-21T04:22:51.563Z,8.30
2018-10-21T04:25:20.216Z,8.30
2018-10-21T04:27:48.495Z,8.20
2018-10-21T04:30:18.498Z,8.20
2018-10-21T04:32:48.119Z,8.20
2018-10-21T04:35:16.542Z,8.10
2018-10-21T04:38:24.316Z,8.10
2018-10-21T04:40:52.476Z,8.10
2018-10-21T04:43:20.525Z,8.10
2018-10-21T04:45:48.693Z,8.20
2018-10-21T04:48:16.886Z,8.10
2018-10-21T04:50:45.296Z,8.10
2018-10-21T04:53:13.545Z,8.10
2018-10-21T04:55:41.633Z,8.00
2018-10-21T04:58:09.741Z,8.00
2018-10-21T05:00:37.749Z,8.00
2018-10-21T05:03:05.793Z,7.90
2018-10-21T05:05:33.883Z,7.80
2018-10-21T05:08:01.995Z,7.70
2018-10-21T05:10:31.400Z,7.70
2018-10-21T05:12:59.542Z,7.80
2018-10-21T05:15:28.816Z,7.70
2018-10-21T05:17:57.114Z,7.70
2018-10-21T05:20:25.188Z,7.60
2018-10-21T05:22:53.231Z,7.60
2018-10-21T05:25:21.376Z,7.60
2018-10-21T05:27:49.441Z,7.50
2018-10-21T05:30:17.542Z,7.50
2018-10-21T05:32:45.659Z,7.50
2018-10-21T05:35:14.976Z,7.50
2018-10-21T05:37:43.115Z,7.50
2018-10-21T05:40:13.510Z,7.50
2018-10-21T05:42:42.078Z,7.60
2018-10-21T05:45:10.122Z,7.60
2018-10-21T05:47:39.040Z,7.60
2018-10-21T05:50:07.625Z,7.60
2018-10-21T05:52:35.676Z,7.60
2018-10-21T05:55:03.763Z,7.70
2018-10-21T05:57:31.913Z,7.80
2018-10-21T05:59:59.957Z,7.80
2018-10-21T06:02:28.069Z,7.70
2018-10-21T06:04:56.099Z,7.80
2018-10-21T06:07:24.334Z,7.80
2018-10-21T06:09:52.531Z,7.80
2018-10-21T06:12:20.647Z,7.80
2018-10-21T06:14:49.773Z,7.80
2018-10-21T06:17:26.212Z,7.70
2018-10-21T06:19:58.787Z,7.80
2018-10-21T06:22:26.871Z,7.80
2018-10-21T06:24:54.931Z,7.90
2018-10-21T06:27:23.010Z,7.90
2018-10-21T06:29:51.079Z,8.00
2018-10-21T06:32:19.238Z,8.10
2018-10-21T06:34:47.280Z,8.20
2018-10-21T06:37:15.349Z,8.20
2018-10-21T06:39:43.480Z,8.20
2018-10-21T06:42:11.650Z,8.30
2018-10-21T06:44:39.676Z,8.40
2018-10-21T06:47:07.806Z,8.40
2018-10-21T06:49:35.869Z,8.40
2018-10-21T06:52:04.257Z,8.50
2018-10-21T06:54:32.323Z,8.50
2018-10-21T06:57:00.445Z,8.50
2018-10-21T06:59:28.488Z,8.50
2018-10-21T07:01:56.542Z,8.50
2018-10-21T07:04:24.657Z,8.50
2018-10-21T07:06:52.636Z,8.60
2018-10-21T07:09:20.871Z,8.80
2018-10-21T07:11:48.889Z,8.90
2018-10-21T07:14:16.967Z,9.00
2018-10-21T07:16:45.048Z,9.10
2018-10-21T07:19:13.158Z,9.10
2018-10-21T07:21:41.206Z,9.10
2018-10-21T07:24:09.277Z,9.30
2018-10-21T07:26:37.376Z,9.20
2018-10-21T07:29:05.427Z,9.20
2018-10-21T07:31:33.461Z,9.10
2018-10-21T07:34:01.603Z,9.20
2018-10-21T07:36:29.781Z,9.30
2018-10-21T07:38:57.771Z,9.30
2018-10-21T07:41:25.818Z,9.30
2018-10-21T07:43:53.873Z,9.40
2018-10-21T07:46:21.924Z,9.50
2018-10-21T07:48:49.990Z,9.50
2018-10-21T07:51:18.065Z,9.50
2018-10-21T07:53:46.126Z,9.60
2018-10-21T07:56:14.200Z,9.70
2018-10-21T07:58:42.259Z,9.90
2018-10-21T08:01:10.404Z,10.10
2018-10-21T08:03:38.563Z,10.20
2018-10-21T08:06:22.877Z,10.30
2018-10-21T08:08:50.957Z,10.40
2018-10-21T08:11:19.034Z,10.50
2018-10-21T08:13:47.094Z,10.60
2018-10-21T08:16:15.180Z,10.70
2018-10-21T08:18:43.266Z,10.70
2018-10-21T08:21:11.365Z,10.70
2018-10-21T08:23:39.511Z,10.80
2018-10-21T08:26:08.499Z,10.90
2018-10-21T08:28:36.782Z,11.10
2018-10-21T08:31:04.851Z,11.20
2018-10-21T08:33:32.957Z,11.40
2018-10-21T08:36:01.097Z,11.50
2018-10-21T08:38:29.089Z,11.60
2018-10-21T08:40:57.593Z,11.70
2018-10-21T08:43:25.695Z,11.80
2018-10-21T08:45:53.796Z,11.80
2018-10-21T08:48:21.889Z,11.90
2018-10-21T08:50:49.932Z,11.90
2018-10-21T08:53:17.980Z,12.00
2018-10-21T08:55:46.118Z,12.10
2018-10-21T08:58:14.265Z,12.20
2018-10-21T09:00:42.238Z,12.20
2018-10-21T09:03:10.299Z,12.10
2018-10-21T09:05:38.418Z,12.10
2018-10-21T09:08:06.482Z,12.20
2018-10-21T09:10:34.663Z,12.30
2018-10-21T09:13:02.735Z,12.40
2018-10-21T09:15:30.955Z,12.50
2018-10-21T09:17:58.981Z,12.60
2018-10-21T09:20:27.050Z,12.70
2018-10-21T09:22:55.215Z,12.80
2018-10-21T09:25:23.303Z,12.90
2018-10-21T09:27:57.921Z,13.00
2018-10-21T09:30:25.999Z,13.10
2018-10-21T09:32:54.056Z,13.10
2018-10-21T09:35:22.133Z,13.20
2018-10-21T09:37:50.200Z,13.20
2018-10-21T09:40:19.457Z,13.30
2018-10-21T09:42:48.197Z,13.20
2018-10-21T09:45:17.629Z,13.40
2018-10-21T09:47:45.998Z,13.60
2018-10-21T09:50:14.546Z,13.70
2018-10-21T09:52:42.771Z,13.80
2018-10-21T09:55:16.633Z,13.90
2018-10-21T09:57:45.466Z,14.00
2018-10-21T10:00:17.916Z,14.10
2018-10-21T10:02:51.538Z,14.20
2018-10-21T10:05:19.721Z,14.20
2018-10-21T10:07:47.806Z,14.20
2018-10-21T10:10:15.965Z,14.30
2018-10-21T10:12:44.220Z,14.30
2018-10-21T10:15:12.282Z,14.40
2018-10-21T10:17:40.457Z,14.40
2018-10-21T10:20:09.378Z,14.50
2018-10-21T10:22:37.435Z,14.40
2018-10-21T10:25:06.074Z,14.60
2018-10-21T10:27:34.145Z,14.70
2018-10-21T10:30:02.380Z,14.80
2018-10-21T10:32:30.422Z,14.80
2018-10-21T10:34:58.517Z,14.80
2018-10-21T10:37:26.802Z,14.90
2018-10-21T10:39:54.924Z,14.80
2018-10-21T10:42:22.971Z,14.80
2018-10-21T10:44:51.088Z,15.00
2018-10-21T10:47:19.187Z,15.10
2018-10-21T10:49:47.241Z,15.20
2018-10-21T10:52:15.424Z,15.30
2018-10-21T10:54:43.501Z,15.40
2018-10-21T10:57:11.696Z,15.40
2018-10-21T10:59:39.869Z,15.40
2018-10-21T11:02:07.965Z,15.60
2018-10-21T11:04:36.062Z,15.70
2018-10-21T11:07:04.251Z,15.80
2018-10-21T11:09:32.263Z,15.90
2018-10-21T11:12:00.407Z,15.90
2018-10-21T11:14:28.548Z,15.90
2018-10-21T11:16:56.562Z,15.90
2018-10-21T11:19:25.550Z,16.00
2018-10-21T11:21:53.722Z,16.00
2018-10-21T11:24:21.717Z,16.00
2018-10-21T11:26:50.114Z,16.00
2018-10-21T11:29:18.161Z,16.00
2018-10-21T11:31:46.221Z,16.00
2018-10-21T11:34:14.649Z,16.00
2018-10-21T11:36:43.028Z,16.00
2018-10-21T11:39:11.398Z,16.20
2018-10-21T11:41:39.443Z,16.10
2018-10-21T11:44:07.547Z,16.20
2018-10-21T11:46:35.721Z,16.10
2018-10-21T11:49:03.754Z,16.20
2018-10-21T11:51:31.848Z,16.20
2018-10-21T11:53:59.949Z,16.30
2018-10-21T11:56:28.033Z,16.10
2018-10-21T11:58:56.148Z,16.20
2018-10-21T12:01:24.230Z,16.40
2018-10-21T12:03:52.289Z,16.30
2018-10-21T12:06:20.393Z,16.40
2018-10-21T12:08:48.470Z,16.40
2018-10-21T12:11:16.542Z,16.60
2018-10-21T12:13:44.637Z,16.70
2018-10-21T12:16:12.778Z,16.80
2018-10-21T12:18:40.764Z,16.90
2018-10-21T12:21:08.854Z,16.90
2018-10-21T12:23:37.003Z,17.00
2018-10-21T12:26:04.975Z,17.00
2018-10-21T12:28:33.141Z,16.80
2018-10-21T12:31:01.459Z,16.80
2018-10-21T12:33:32.713Z,16.70
2018-10-21T12:36:00.818Z,16.90
2018-10-21T12:38:28.933Z,16.90
2018-10-21T12:40:57.046Z,17.00
2018-10-21T12:43:25.955Z,17.00
2018-10-21T12:45:54.182Z,16.90
2018-10-21T12:48:22.239Z,17.00
2018-10-21T12:50:50.376Z,16.70
2018-10-21T12:53:18.504Z,17.00
2018-10-21T12:55:49.136Z,17.00
2018-10-21T12:58:17.800Z,17.10
2018-10-21T13:00:45.825Z,17.20
2018-10-21T13:03:13.913Z,17.40
2018-10-21T13:05:42.233Z,17.50
2018-10-21T13:08:10.396Z,17.60
2018-10-21T13:10:38.448Z,17.50
2018-10-21T13:13:06.625Z,17.60
2018-10-21T13:15:34.846Z,17.60
2018-10-21T13:18:03.480Z,17.60
2018-10-21T13:20:31.614Z,17.60
2018-10-21T13:22:59.810Z,17.60
2018-10-21T13:25:27.869Z,17.70
2018-10-21T13:27:56.011Z,17.60
2018-10-21T13:30:24.058Z,17.70
2018-10-21T13:32:52.215Z,17.70
2018-10-21T13:35:20.314Z,17.80
2018-10-21T13:37:52.119Z,18.00
2018-10-21T13:40:22.083Z,18.00
2018-10-21T13:42:53.403Z,18.10
2018-10-21T13:45:21.944Z,18.10
2018-10-21T13:47:49.987Z,18.10
2018-10-21T13:50:18.042Z,18.10
2018-10-21T13:52:46.208Z,18.20
2018-10-21T13:55:14.508Z,18.20
2018-10-21T13:57:42.669Z,18.50
2018-10-21T14:00:10.831Z,19.10
2018-10-21T14:02:38.930Z,20.20
2018-10-21T14:05:07.536Z,20.80
2018-10-21T14:07:35.590Z,22.00
2018-10-21T14:10:03.877Z,23.20
2018-10-21T14:12:31.940Z,24.40
2018-10-21T14:15:00.605Z,24.80
2018-10-21T14:17:28.656Z,25.40
2018-10-21T14:19:56.819Z,25.80
2018-10-21T14:22:24.880Z,25.30
2018-10-21T14:24:52.975Z,26.30
2018-10-21T14:27:21.014Z,26.10
2018-10-21T14:29:49.230Z,26.30
2018-10-21T14:32:17.354Z,26.30
2018-10-21T14:34:45.774Z,27.10
2018-10-21T14:37:14.165Z,26.60
2018-10-21T14:39:42.286Z,26.40
2018-10-21T14:42:10.498Z,26.20
2018-10-21T14:44:38.673Z,25.80
2018-10-21T14:47:06.725Z,25.90
2018-10-21T14:49:34.837Z,26.00
2018-10-21T14:52:02.898Z,25.90
2018-10-21T14:54:31.005Z,25.80
2018-10-21T14:56:59.057Z,25.50
2018-10-21T14:59:27.115Z,25.90
2018-10-21T15:01:55.191Z,25.70
2018-10-21T15:04:23.363Z,25.40
2018-10-21T15:06:51.401Z,25.20
2018-10-21T15:09:19.508Z,24.90
2018-10-21T15:11:47.543Z,24.20
2018-10-21T15:14:15.635Z,24.50
2018-10-21T15:16:43.684Z,24.40
2018-10-21T15:19:11.764Z,23.90
2018-10-21T15:21:39.852Z,23.30
2018-10-21T15:24:07.915Z,22.70
2018-10-21T15:26:35.961Z,22.40
2018-10-21T15:29:04.197Z,21.80
2018-10-21T15:31:32.240Z,21.30
2018-10-21T15:34:00.434Z,21.00
2018-10-21T15:36:28.529Z,20.70
2018-10-21T15:38:56.636Z,20.30
2018-10-21T15:41:24.739Z,20.10
2018-10-21T15:43:52.822Z,19.80
2018-10-21T15:46:20.959Z,19.40
2018-10-21T15:48:49.134Z,18.70
2018-10-21T15:51:17.244Z,18.40
2018-10-21T15:53:45.284Z,18.20
2018-10-21T15:56:13.458Z,17.50
2018-10-21T15:58:41.838Z,17.10
2018-10-21T16:01:10.032Z,16.70
2018-10-21T16:03:38.131Z,16.50
2018-10-21T16:06:06.379Z,16.20
2018-10-21T16:08:34.673Z,16.00
2018-10-21T16:11:02.888Z,15.80
2018-10-21T16:13:30.941Z,15.70
2018-10-21T16:15:59.055Z,15.50
2018-10-21T16:18:27.148Z,15.40
2018-10-21T16:20:55.351Z,15.30
2018-10-21T16:23:23.471Z,15.10
2018-10-21T16:25:51.572Z,15.00
2018-10-21T16:28:19.686Z,14.90
2018-10-21T16:30:47.743Z,14.80
2018-10-21T16:33:15.854Z,14.70
2018-10-21T16:35:44.174Z,14.60
2018-10-21T16:38:12.397Z,14.40
2018-10-21T16:40:40.442Z,14.40
2018-10-21T16:43:08.553Z,14.30
2018-10-21T16:45:36.645Z,14.20
2018-10-21T16:48:04.754Z,14.10
2018-10-21T16:50:37.735Z,14.10
2018-10-21T16:53:01.008Z,14.00
2018-10-21T16:55:29.024Z,13.90
2018-10-21T16:57:57.149Z,13.80
2018-10-21T17:00:25.353Z,13.70
2018-10-21T17:02:53.481Z,13.70
2018-10-21T17:05:21.686Z,13.70
2018-10-21T17:07:49.900Z,13.60
2018-10-21T17:10:18.429Z,13.60
2018-10-21T17:12:46.325Z,13.50
2018-10-21T17:15:14.497Z,13.50
2018-10-21T17:17:43.181Z,13.40
2018-10-21T17:20:12.251Z,13.40
2018-10-21T17:22:41.270Z,13.30
2018-10-21T17:25:09.810Z,13.20
2018-10-21T17:27:38.352Z,13.20
2018-10-21T17:30:10.849Z,13.10
2018-10-21T17:32:38.962Z,13.10
2018-10-21T17:35:07.515Z,13.10
2018-10-21T17:37:35.599Z,13.10
2018-10-21T17:40:03.716Z,13.00
2018-10-21T17:42:31.822Z,13.00
2018-10-21T17:44:59.940Z,12.90
2018-10-21T17:47:28.057Z,12.90
2018-10-21T17:49:56.285Z,12.90
2018-10-21T17:52:24.423Z,12.80
2018-10-21T17:54:52.504Z,12.80
2018-10-21T17:57:20.654Z,12.80
2018-10-21T17:59:48.834Z,12.70
2018-10-21T18:02:17.009Z,12.70
2018-10-21T18:04:45.165Z,12.70
2018-10-21T18:07:13.548Z,12.60
2018-10-21T18:09:41.642Z,12.60
2018-10-21T18:12:09.818Z,12.60
2018-10-21T18:14:37.909Z,12.60
2018-10-21T18:17:06.098Z,12.60
2018-10-21T18:19:34.182Z,12.50
2018-10-21T18:22:02.326Z,12.50
2018-10-21T18:24:30.385Z,12.50
2018-10-21T18:26:58.509Z,12.40
2018-10-21T18:29:26.541Z,12.40
2018-10-21T18:31:54.663Z,12.30
2018-10-21T18:34:22.817Z,12.30
2018-10-21T18:36:51.141Z,12.20
2018-10-21T18:39:19.226Z,12.20
2018-10-21T18:41:47.409Z,12.10
2018-10-21T18:44:15.556Z,12.10
2018-10-21T18:46:43.684Z,12.00
2018-10-21T18:49:11.982Z,12.00
2018-10-21T18:51:40.060Z,11.90
2018-10-21T18:54:08.189Z,11.80
2018-10-21T18:56:36.362Z,11.80
2018-10-21T18:59:04.439Z,11.70
2018-10-21T19:01:32.732Z,11.70
2018-10-21T19:04:00.933Z,11.60
2018-10-21T19:06:29.341Z,11.50
2018-10-21T19:08:57.458Z,11.50
2018-10-21T19:11:25.559Z,11.50
2018-10-21T19:13:53.606Z,11.50
2018-10-21T19:16:21.763Z,11.40
2018-10-21T19:18:50.098Z,11.30
2018-10-21T19:21:18.208Z,11.30
2018-10-21T19:23:46.256Z,11.20
2018-10-21T19:26:14.358Z,11.20
2018-10-21T19:28:42.443Z,11.10
2018-10-21T19:31:10.596Z,11.10
2018-10-21T19:33:38.767Z,11.00
2018-10-21T19:36:06.825Z,11.00
2018-10-21T19:38:34.973Z,10.90
2018-10-21T19:41:03.052Z,10.80
2018-10-21T19:43:31.311Z,10.80
2018-10-21T19:45:59.338Z,10.80
2018-10-21T19:48:27.366Z,10.80
2018-10-21T19:50:55.447Z,10.80
2018-10-21T19:53:23.528Z,10.80
2018-10-21T19:55:51.650Z,10.80
2018-10-21T19:58:19.735Z,10.70
2018-10-21T20:00:47.789Z,10.70
2018-10-21T20:03:15.886Z,10.70
2018-10-21T20:05:43.960Z,10.70
2018-10-21T20:08:12.106Z,10.70
2018-10-21T20:10:40.266Z,10.60
2018-10-21T20:13:08.369Z,10.60
2018-10-21T20:15:36.412Z,10.60
2018-10-21T20:18:05.289Z,10.50
2018-10-21T20:20:33.321Z,10.50
2018-10-21T20:23:01.374Z,10.40
2018-10-21T20:25:29.419Z,10.40
2018-10-21T20:27:57.495Z,10.30
2018-10-21T20:30:25.808Z,10.40
2018-10-21T20:32:54.031Z,10.30
2018-10-21T20:35:21.997Z,10.30
2018-10-21T20:37:50.045Z,10.20
2018-10-21T20:40:18.203Z,10.10
2018-10-21T20:42:46.189Z,10.10
2018-10-21T20:45:14.335Z,10.10
2018-10-21T20:47:42.519Z,10.00
2018-10-21T20:50:10.600Z,10.00
2018-10-21T20:52:38.778Z,9.90
2018-10-21T20:55:06.830Z,10.00
2018-10-21T20:57:34.993Z,10.00
2018-10-21T21:00:03.075Z,9.90
2018-10-21T21:02:31.117Z,9.90
2018-10-21T21:04:59.157Z,9.80
2018-10-21T21:07:27.275Z,9.80
2018-10-21T21:09:55.311Z,9.90
2018-10-21T21:12:23.382Z,9.90
2018-10-21T21:14:51.429Z,9.80
2018-10-21T21:17:19.560Z,9.90
2018-10-21T21:19:47.629Z,9.90
2018-10-21T21:22:15.817Z,9.90
2018-10-21T21:24:43.869Z,9.90
2018-10-21T21:27:11.949Z,9.90
2018-10-21T21:29:40.129Z,10.00
2018-10-21T21:32:08.218Z,10.10
2018-10-21T21:34:36.368Z,10.00
2018-10-21T21:37:04.494Z,10.10
2018-10-21T21:39:32.532Z,10.10
2018-10-21T21:42:00.658Z,10.20
2018-10-21T21:44:28.687Z,10.20
2018-10-21T21:46:56.792Z,10.20
2018-10-21T21:49:24.889Z,10.30
2018-10-21T21:51:53.065Z,10.20
2018-10-21T21:54:21.166Z,10.30
2018-10-21T21:56:49.199Z,10.20
2018-10-21T21:59:17.307Z,10.30
2018-10-21T22:01:45.347Z,10.40
2018-10-21T22:04:13.503Z,10.40
2018-10-21T22:06:41.473Z,10.50
2018-10-21T22:09:10.515Z,10.50
2018-10-21T22:11:38.795Z,10.50
2018-10-21T22:14:07.275Z,10.50
2018-10-21T22:16:35.408Z,10.50
2018-10-21T22:19:03.643Z,10.50
2018-10-21T22:21:31.730Z,10.40
2018-10-21T22:23:59.876Z,10.30
2018-10-21T22:26:27.949Z,10.40
2018-10-21T22:28:56.090Z,10.40
2018-10-21T22:31:24.143Z,10.30
2018-10-21T22:33:52.199Z,10.50
2018-10-21T22:36:20.314Z,10.40
2018-10-21T22:38:48.375Z,10.40
2018-10-21T22:41:16.603Z,10.50
2018-10-21T22:43:44.786Z,10.60
2018-10-21T22:46:12.933Z,10.50
2018-10-21T22:48:40.974Z,10.50
2018-10-21T22:51:09.257Z,10.50
2018-10-21T22:53:37.337Z,10.60
2018-10-21T22:56:05.424Z,10.70
2018-10-21T22:58:33.501Z,10.70
2018-10-21T23:01:01.628Z,10.80
2018-10-21T23:03:29.675Z,10.70
2018-10-21T23:05:57.875Z,10.80
2018-10-21T23:08:25.889Z,10.80
2018-10-21T23:10:53.969Z,10.80
2018-10-21T23:13:22.016Z,10.90
2018-10-21T23:15:50.101Z,11.00
2018-10-21T23:18:18.347Z,10.90
2018-10-21T23:20:46.469Z,10.90
2018-10-21T23:23:14.509Z,10.90
2018-10-21T23:25:42.580Z,10.90
2018-10-21T23:28:10.697Z,11.00
2018-10-21T23:30:38.754Z,11.00
2018-10-21T23:33:06.882Z,10.90
2018-10-21T23:35:34.953Z,10.90
2018-10-21T23:38:03.046Z,11.00
2018-10-21T23:40:31.195Z,11.00
2018-10-21T23:42:59.212Z,11.10
2018-10-21T23:45:27.265Z,11.10
2018-10-21T23:47:55.344Z,11.20
2018-10-21T23:50:23.382Z,11.10
2018-10-21T23:52:51.423Z,11.20
2018-10-21T23:55:19.482Z,11.10
2018-10-21T23:57:47.568Z,11.00
